createdAt,value
2018-12-18T00:02:21.622Z,42.37
2018-12-18T00:05:31.225Z,39.20
2018-12-18T00:08:39.184Z,39.47
2018-12-18T00:11:43.559Z,36.03
2018-12-18T00:14:47.946Z,40.63
2018-12-18T00:17:52.337Z,41.77
2018-12-18T00:20:56.464Z,34.67
2018-12-18T00:24:00.757Z,34.80
2018-12-18T00:27:05.045Z,35.37
2018-12-18T00:30:10.077Z,34.20
2018-12-18T00:33:14.605Z,33.87
2018-12-18T00:36:21.975Z,33.67
2018-12-18T00:39:26.319Z,37.30
2018-12-18T00:42:30.789Z,36.90
2018-12-18T00:45:35.414Z,31.83
2018-12-18T00:48:39.615Z,35.63
2018-12-18T00:51:43.850Z,45.33
2018-12-18T00:54:48.190Z,44.30
2018-12-18T00:57:52.650Z,41.97
2018-12-18T01:00:57.051Z,37.30
2018-12-18T01:04:01.627Z,37.30
2018-12-18T01:07:06.097Z,41.20
2018-12-18T01:10:10.152Z,37.57
2018-12-18T01:13:14.377Z,43.80
2018-12-18T01:16:18.516Z,42.80
2018-12-18T01:19:22.837Z,35.70
2018-12-18T01:22:26.947Z,32.37
2018-12-18T01:25:31.280Z,39.67
2018-12-18T01:28:35.846Z,43.50
2018-12-18T01:31:40.307Z,40.53
2018-12-18T01:34:44.620Z,44.87
2018-12-18T01:37:48.935Z,32.60
2018-12-18T01:40:53.288Z,37.20
2018-12-18T01:43:57.524Z,41.40
2018-12-18T01:47:01.744Z,35.23
2018-12-18T01:50:06.371Z,33.67
2018-12-18T01:53:10.570Z,41.53
2018-12-18T01:56:15.435Z,38.83
2018-12-18T01:59:19.550Z,38.70
2018-12-18T02:02:23.941Z,37.57
2018-12-18T02:05:28.325Z,41.90
2018-12-18T02:08:32.714Z,38.77
2018-12-18T02:11:37.349Z,38.90
2018-12-18T02:14:41.635Z,35.27
2018-12-18T02:17:46.076Z,40.10
2018-12-18T02:20:50.429Z,44.00
2018-12-18T02:23:54.687Z,36.93
2018-12-18T02:26:58.959Z,37.90
2018-12-18T02:30:04.513Z,38.77
2018-12-18T02:33:08.723Z,34.67
2018-12-18T02:36:13.195Z,39.90
2018-12-18T02:39:17.622Z,40.23
2018-12-18T02:42:21.951Z,38.30
2018-12-18T02:45:26.312Z,40.67
2018-12-18T02:48:30.902Z,38.77
2018-12-18T02:51:35.197Z,39.23
2018-12-18T02:54:39.532Z,38.27
2018-12-18T02:57:43.992Z,38.23
2018-12-18T03:00:48.482Z,35.03
2018-12-18T03:03:52.639Z,40.93
2018-12-18T03:06:57.057Z,38.80
2018-12-18T03:10:02.096Z,38.40
2018-12-18T03:13:06.931Z,40.40
2018-12-18T03:16:11.297Z,37.50
2018-12-18T03:19:15.720Z,43.10
2018-12-18T03:22:21.033Z,36.00
2018-12-18T03:25:25.461Z,38.43
2018-12-18T03:28:29.544Z,52.13
2018-12-18T03:31:35.151Z,39.37
2018-12-18T03:34:39.323Z,43.47
2018-12-18T03:37:43.388Z,42.40
2018-12-18T03:40:47.497Z,40.37
2018-12-18T03:43:51.701Z,35.30
2018-12-18T03:46:56.179Z,46.47
2018-12-18T03:50:00.685Z,44.73
2018-12-18T03:53:04.981Z,39.33
2018-12-18T03:56:09.512Z,34.67
2018-12-18T03:59:13.762Z,38.53
2018-12-18T04:02:18.130Z,36.83
2018-12-18T04:05:22.452Z,41.83
2018-12-18T04:08:26.929Z,38.70
2018-12-18T04:11:31.318Z,36.57
2018-12-18T04:14:35.748Z,36.47
2018-12-18T04:17:39.996Z,39.50
2018-12-18T04:20:44.535Z,34.40
2018-12-18T04:23:48.927Z,44.93
2018-12-18T04:26:53.355Z,34.03
2018-12-18T04:29:57.671Z,35.67
2018-12-18T04:33:02.012Z,40.80
2018-12-18T04:36:06.539Z,41.07
2018-12-18T04:39:10.856Z,49.70
2018-12-18T04:42:15.164Z,44.60
2018-12-18T04:45:19.577Z,33.90
2018-12-18T04:48:23.767Z,32.47
2018-12-18T04:51:28.214Z,36.60
2018-12-18T04:54:32.474Z,37.87
2018-12-18T04:57:36.826Z,33.97
2018-12-18T05:00:41.077Z,35.23
2018-12-18T05:03:45.375Z,38.97
2018-12-18T05:06:50.008Z,32.97
2018-12-18T05:09:54.150Z,27.00
2018-12-18T05:12:58.448Z,41.13
2018-12-18T05:16:02.803Z,35.87
2018-12-18T05:19:07.115Z,37.73
2018-12-18T05:22:11.495Z,42.13
2018-12-18T05:25:16.056Z,38.13
2018-12-18T05:28:20.330Z,38.33
2018-12-18T05:31:24.721Z,32.63
2018-12-18T05:34:29.037Z,32.20
2018-12-18T05:37:33.456Z,33.07
2018-12-18T05:40:37.915Z,32.77
2018-12-18T05:43:42.317Z,37.63
2018-12-18T05:46:46.545Z,44.27
2018-12-18T05:49:50.838Z,30.63
2018-12-18T05:52:55.163Z,34.47
2018-12-18T05:56:00.243Z,36.60
2018-12-18T05:59:04.950Z,36.10
2018-12-18T06:02:09.248Z,35.37
2018-12-18T06:05:13.636Z,41.10
2018-12-18T06:08:17.892Z,42.43
2018-12-18T06:11:22.177Z,39.87
2018-12-18T06:14:26.694Z,43.40
2018-12-18T06:17:31.028Z,37.30
2018-12-18T06:20:35.166Z,44.63
2018-12-18T06:23:39.428Z,42.43
2018-12-18T06:26:44.175Z,48.93
2018-12-18T06:29:48.541Z,38.60
2018-12-18T06:32:52.678Z,54.47
2018-12-18T06:35:56.916Z,46.23
2018-12-18T06:39:02.010Z,44.30
2018-12-18T06:42:06.523Z,44.37
2018-12-18T06:45:10.714Z,45.17
2018-12-18T06:48:15.235Z,44.63
2018-12-18T06:51:19.727Z,46.03
2018-12-18T06:54:23.998Z,52.17
2018-12-18T06:57:28.354Z,44.80
2018-12-18T07:00:32.693Z,44.40
2018-12-18T07:03:37.187Z,42.60
2018-12-18T07:06:42.749Z,52.10
2018-12-18T07:09:47.167Z,50.83
2018-12-18T07:12:51.680Z,47.03
2018-12-18T07:15:55.885Z,44.47
2018-12-18T07:19:00.513Z,45.10
2018-12-18T07:22:04.727Z,44.17
2018-12-18T07:25:09.060Z,44.63
2018-12-18T07:28:13.524Z,47.70
2018-12-18T07:31:17.863Z,49.00
2018-12-18T07:34:22.156Z,51.30
2018-12-18T07:37:26.364Z,42.17
2018-12-18T07:40:30.960Z,50.47
2018-12-18T07:43:35.424Z,43.67
2018-12-18T07:46:39.748Z,35.17
2018-12-18T07:49:50.556Z,43.93
2018-12-18T07:52:55.374Z,41.23
2018-12-18T07:56:00.337Z,35.63
2018-12-18T07:59:05.021Z,44.60
2018-12-18T08:02:10.484Z,55.70
2018-12-18T08:05:15.061Z,45.30
2018-12-18T08:08:19.182Z,43.17
2018-12-18T08:11:23.529Z,42.30
2018-12-18T08:14:27.895Z,45.27
2018-12-18T08:17:32.076Z,45.73
2018-12-18T08:20:36.807Z,39.87
2018-12-18T08:23:41.381Z,38.80
2018-12-18T08:26:45.856Z,51.40
2018-12-18T08:29:50.295Z,52.90
2018-12-18T08:32:55.077Z,40.87
2018-12-18T08:35:59.229Z,46.13
2018-12-18T08:39:05.401Z,41.70
2018-12-18T08:42:09.769Z,45.80
2018-12-18T08:45:14.066Z,75.47
2018-12-18T08:48:18.397Z,56.20
2018-12-18T08:51:22.698Z,87.40
2018-12-18T08:54:26.924Z,87.10
2018-12-18T08:57:31.336Z,53.80
2018-12-18T09:00:36.703Z,46.00
2018-12-18T09:03:40.892Z,51.53
2018-12-18T09:06:45.196Z,43.70
2018-12-18T09:09:49.569Z,45.00
2018-12-18T09:12:53.885Z,40.33
2018-12-18T09:15:58.625Z,45.90
2018-12-18T09:19:03.007Z,36.20
2018-12-18T09:22:07.330Z,42.73
2018-12-18T09:25:11.750Z,36.27
2018-12-18T09:28:16.147Z,38.57
2018-12-18T09:31:20.535Z,41.07
2018-12-18T09:34:25.954Z,32.67
2018-12-18T09:37:30.344Z,28.60
2018-12-18T09:40:39.982Z,27.07
2018-12-18T09:43:49.377Z,31.23
2018-12-18T09:46:53.709Z,26.93
2018-12-18T09:49:58.156Z,24.37
2018-12-18T09:53:02.635Z,31.50
2018-12-18T09:56:06.883Z,26.13
2018-12-18T09:59:11.132Z,30.60
2018-12-18T10:02:15.400Z,28.40
2018-12-18T10:05:19.718Z,33.20
2018-12-18T10:08:24.297Z,30.03
2018-12-18T10:11:28.380Z,32.37
2018-12-18T10:14:32.794Z,27.90
2018-12-18T10:17:39.469Z,24.03
2018-12-18T10:20:43.700Z,27.50
2018-12-18T10:23:48.132Z,26.97
2018-12-18T10:26:52.579Z,29.37
2018-12-18T10:29:56.899Z,39.00
2018-12-18T10:33:01.347Z,39.23
2018-12-18T10:36:05.505Z,30.40
2018-12-18T10:39:09.902Z,36.07
2018-12-18T10:42:14.230Z,29.00
2018-12-18T10:45:20.607Z,28.60
2018-12-18T10:48:25.068Z,26.43
2018-12-18T10:51:29.616Z,23.33
2018-12-18T10:54:33.829Z,28.73
2018-12-18T10:57:38.917Z,28.13
2018-12-18T11:00:48.607Z,25.80
2018-12-18T11:03:52.857Z,32.57
2018-12-18T11:06:57.197Z,31.70
2018-12-18T11:10:01.472Z,29.27
2018-12-18T11:13:10.888Z,31.53
2018-12-18T11:16:15.234Z,32.27
2018-12-18T11:19:19.565Z,39.43
2018-12-18T11:22:23.837Z,32.27
2018-12-18T11:25:28.199Z,31.20
2018-12-18T11:28:32.751Z,39.10
2018-12-18T11:31:37.129Z,41.27
2018-12-18T11:34:41.593Z,38.73
2018-12-18T11:37:45.535Z,39.43
2018-12-18T11:40:49.824Z,32.60
2018-12-18T11:43:54.118Z,58.63
2018-12-18T11:46:58.628Z,44.97
2018-12-18T11:50:02.530Z,36.13
2018-12-18T11:53:06.946Z,33.77
2018-12-18T11:56:11.292Z,33.60
2018-12-18T11:59:15.660Z,40.47
2018-12-18T12:02:20.071Z,43.00
2018-12-18T12:05:24.483Z,32.83
2018-12-18T12:08:28.334Z,28.97
2018-12-18T12:11:32.533Z,28.60
2018-12-18T12:14:36.873Z,28.33
2018-12-18T12:17:41.446Z,33.23
2018-12-18T12:20:45.875Z,31.50
2018-12-18T12:23:50.129Z,31.53
2018-12-18T12:26:58.938Z,34.60
2018-12-18T12:30:03.541Z,28.87
2018-12-18T12:33:08.536Z,34.13
2018-12-18T12:36:13.420Z,31.30
2018-12-18T12:39:17.656Z,30.13
2018-12-18T12:42:22.196Z,32.57
2018-12-18T12:45:26.469Z,32.13
2018-12-18T12:48:36.021Z,35.20
2018-12-18T12:51:40.162Z,30.80
2018-12-18T12:54:44.621Z,33.90
2018-12-18T12:57:48.884Z,35.97
2018-12-18T13:00:53.181Z,33.23
2018-12-18T13:03:58.542Z,31.57
2018-12-18T13:07:03.076Z,31.03
2018-12-18T13:10:07.517Z,36.60
2018-12-18T13:13:11.631Z,36.10
2018-12-18T13:16:16.171Z,31.57
2018-12-18T13:19:20.575Z,32.80
2018-12-18T13:22:24.972Z,31.27
2018-12-18T13:25:29.436Z,32.93
2018-12-18T13:28:33.506Z,29.07
2018-12-18T13:31:37.874Z,31.87
2018-12-18T13:34:42.288Z,31.70
2018-12-18T13:37:46.599Z,35.47
2018-12-18T13:40:50.678Z,35.73
2018-12-18T13:43:55.005Z,26.97
2018-12-18T13:46:59.692Z,27.50
2018-12-18T13:50:04.300Z,27.60
2018-12-18T13:53:08.510Z,26.67
2018-12-18T13:56:12.759Z,30.07
2018-12-18T13:59:17.041Z,32.63
2018-12-18T14:02:21.723Z,28.97
2018-12-18T14:05:26.146Z,28.57
2018-12-18T14:08:30.517Z,31.47
2018-12-18T14:11:34.441Z,29.47
2018-12-18T14:14:38.917Z,29.87
2018-12-18T14:17:43.261Z,34.90
2018-12-18T14:20:47.832Z,31.30
2018-12-18T14:23:52.092Z,33.53
2018-12-18T14:26:56.435Z,34.80
2018-12-18T14:30:00.873Z,28.40
2018-12-18T14:33:05.188Z,30.47
2018-12-18T14:36:09.768Z,33.93
2018-12-18T14:39:14.202Z,31.97
2018-12-18T14:42:18.210Z,37.03
2018-12-18T14:45:22.609Z,35.67
2018-12-18T14:48:26.936Z,28.90
2018-12-18T14:51:30.903Z,34.97
2018-12-18T14:54:35.237Z,34.10
2018-12-18T14:57:39.502Z,32.00
2018-12-18T15:00:43.443Z,31.90
2018-12-18T15:03:47.513Z,36.20
2018-12-18T15:06:51.956Z,34.07
2018-12-18T15:09:55.891Z,36.47
2018-12-18T15:12:59.822Z,34.63
2018-12-18T15:16:04.131Z,34.60
2018-12-18T15:19:09.075Z,34.90
2018-12-18T15:22:13.038Z,36.23
2018-12-18T15:25:16.934Z,31.90
2018-12-18T15:28:20.913Z,35.57
2018-12-18T15:31:24.812Z,43.77
2018-12-18T15:34:29.061Z,39.27
2018-12-18T15:37:33.391Z,36.63
2018-12-18T15:40:37.996Z,36.63
2018-12-18T15:43:42.251Z,39.40
2018-12-18T15:46:46.547Z,46.00
2018-12-18T15:49:50.970Z,39.37
2018-12-18T15:52:55.316Z,40.43
2018-12-18T15:55:59.664Z,42.73
2018-12-18T15:59:04.149Z,32.27
2018-12-18T16:02:08.637Z,38.17
2018-12-18T16:05:13.155Z,28.50
2018-12-18T16:08:17.393Z,26.27
2018-12-18T16:11:21.658Z,34.80
2018-12-18T16:14:25.631Z,25.30
2018-12-18T16:17:29.612Z,24.13
2018-12-18T16:20:33.654Z,23.37
2018-12-18T16:23:38.137Z,20.33
2018-12-18T16:26:42.262Z,19.50
2018-12-18T16:29:47.103Z,21.77
2018-12-18T16:32:52.584Z,18.10
2018-12-18T16:35:56.755Z,22.90
2018-12-18T16:39:00.795Z,20.73
2018-12-18T16:42:11.279Z,27.57
2018-12-18T16:45:15.329Z,22.67
2018-12-18T16:48:19.277Z,21.20
2018-12-18T16:51:23.356Z,16.90
2018-12-18T16:54:27.618Z,18.30
2018-12-18T16:57:31.622Z,20.20
2018-12-18T17:00:35.669Z,20.27
2018-12-18T17:03:39.829Z,25.37
2018-12-18T17:06:43.858Z,20.50
2018-12-18T17:09:47.818Z,22.13
2018-12-18T17:12:56.086Z,27.80
2018-12-18T17:16:00.188Z,29.80
2018-12-18T17:19:04.551Z,24.93
2018-12-18T17:22:08.881Z,22.20
2018-12-18T17:25:13.235Z,26.20
2018-12-18T17:28:17.501Z,27.07
2018-12-18T17:31:21.778Z,27.47
2018-12-18T17:34:25.638Z,32.53
2018-12-18T17:37:36.041Z,36.00
2018-12-18T17:40:35.865Z,28.37
2018-12-18T17:43:40.371Z,26.33
2018-12-18T17:46:44.836Z,24.37
2018-12-18T17:49:48.839Z,23.43
2018-12-18T17:52:53.817Z,23.57
2018-12-18T17:55:57.823Z,27.77
2018-12-18T17:59:01.804Z,22.93
2018-12-18T18:02:06.090Z,28.43
2018-12-18T18:05:10.780Z,28.67
2018-12-18T18:08:14.954Z,28.70
2018-12-18T18:11:19.202Z,29.80
2018-12-18T18:14:23.193Z,29.30
2018-12-18T18:17:33.731Z,26.27
2018-12-18T18:20:37.959Z,28.10
2018-12-18T18:23:42.577Z,25.53
2018-12-18T18:26:46.571Z,24.10
2018-12-18T18:29:50.850Z,24.60
2018-12-18T18:32:55.259Z,25.67
2018-12-18T18:35:59.808Z,28.50
2018-12-18T18:39:05.725Z,27.97
2018-12-18T18:42:10.077Z,22.33
2018-12-18T18:45:14.176Z,24.27
2018-12-18T18:48:18.545Z,24.13
2018-12-18T18:51:22.709Z,26.67
2018-12-18T18:54:27.058Z,24.13
2018-12-18T18:57:31.485Z,31.00
2018-12-18T19:00:35.908Z,26.70
2018-12-18T19:03:40.228Z,24.63
2018-12-18T19:06:44.544Z,25.47
2018-12-18T19:09:48.941Z,25.10
2018-12-18T19:12:57.585Z,26.60
2018-12-18T19:16:02.100Z,28.27
2018-12-18T19:19:06.569Z,30.40
2018-12-18T19:22:10.815Z,25.03
2018-12-18T19:25:14.818Z,25.57
2018-12-18T19:28:19.045Z,24.30
2018-12-18T19:31:23.448Z,25.57
2018-12-18T19:34:27.706Z,23.47
2018-12-18T19:37:32.019Z,25.70
2018-12-18T19:40:36.016Z,32.00
2018-12-18T19:43:40.049Z,22.70
2018-12-18T19:46:44.580Z,27.53
2018-12-18T19:49:48.679Z,26.10
2018-12-18T19:52:52.664Z,26.97
2018-12-18T19:55:56.673Z,23.53
2018-12-18T19:59:01.200Z,27.27
2018-12-18T20:02:05.206Z,28.97
2018-12-18T20:05:09.327Z,26.47
2018-12-18T20:08:13.403Z,26.43
2018-12-18T20:11:17.516Z,27.53
2018-12-18T20:14:21.654Z,24.53
2018-12-18T20:17:25.628Z,28.27
2018-12-18T20:20:29.737Z,27.40
2018-12-18T20:23:33.893Z,23.67
2018-12-18T20:26:39.049Z,27.43
2018-12-18T20:29:43.484Z,23.83
2018-12-18T20:32:47.440Z,35.30
2018-12-18T20:35:51.510Z,33.20
2018-12-18T20:38:55.990Z,35.33
2018-12-18T20:42:00.594Z,35.13
2018-12-18T20:45:05.375Z,33.07
2018-12-18T20:48:09.548Z,44.13
2018-12-18T20:51:13.533Z,37.77
2018-12-18T20:54:17.707Z,39.80
2018-12-18T20:57:21.742Z,40.17
2018-12-18T21:00:26.085Z,40.10
2018-12-18T21:03:30.145Z,39.20
2018-12-18T21:06:34.173Z,42.67
2018-12-18T21:09:38.275Z,37.27
2018-12-18T21:12:42.359Z,36.93
2018-12-18T21:15:46.480Z,37.57
2018-12-18T21:18:50.727Z,38.13
2018-12-18T21:21:55.256Z,39.17
2018-12-18T21:24:59.221Z,38.60
2018-12-18T21:28:03.282Z,41.73
2018-12-18T21:31:07.195Z,37.43
2018-12-18T21:34:11.293Z,46.00
2018-12-18T21:37:15.667Z,42.43
2018-12-18T21:40:19.910Z,39.50
2018-12-18T21:43:25.200Z,35.90
2018-12-18T21:46:29.162Z,37.63
2018-12-18T21:49:33.768Z,37.73
2018-12-18T21:52:38.014Z,38.03
2018-12-18T21:55:42.600Z,41.10
2018-12-18T21:58:47.247Z,43.33
2018-12-18T22:01:51.349Z,36.90
2018-12-18T22:04:55.571Z,50.70
2018-12-18T22:07:59.908Z,40.80
2018-12-18T22:11:04.272Z,41.30
2018-12-18T22:14:08.677Z,32.27
2018-12-18T22:17:13.005Z,36.50
2018-12-18T22:20:17.529Z,38.60
2018-12-18T22:23:21.903Z,37.90
2018-12-18T22:26:26.518Z,40.30
2018-12-18T22:29:30.799Z,41.33
2018-12-18T22:32:35.216Z,38.90
2018-12-18T22:35:39.747Z,34.77
2018-12-18T22:38:44.158Z,32.63
2018-12-18T22:41:48.965Z,41.23
2018-12-18T22:44:53.103Z,41.60
2018-12-18T22:47:57.339Z,39.50
2018-12-18T22:51:02.054Z,37.90
2018-12-18T22:54:06.758Z,40.07
2018-12-18T22:57:11.098Z,35.00
2018-12-18T23:00:20.908Z,39.00
2018-12-18T23:03:25.268Z,44.90
2018-12-18T23:06:29.599Z,39.00
2018-12-18T23:09:33.819Z,32.70
2018-12-18T23:12:38.162Z,35.63
2018-12-18T23:15:42.421Z,35.37
2018-12-18T23:18:46.625Z,43.93
2018-12-18T23:21:50.840Z,39.40
2018-12-18T23:24:55.263Z,40.43
2018-12-18T23:27:59.763Z,36.23
2018-12-18T23:31:03.849Z,44.23
2018-12-18T23:34:08.118Z,39.40
2018-12-18T23:37:18.783Z,39.37
2018-12-18T23:40:23.102Z,37.67
2018-12-18T23:43:27.677Z,32.87
2018-12-18T23:46:31.911Z,38.30
2018-12-18T23:49:36.412Z,46.87
2018-12-18T23:52:40.868Z,47.43
2018-12-18T23:55:45.429Z,44.63
2018-12-18T23:58:50.142Z,44.23
